sensor_id;sensor_type;location;lat;lon;timestamp;temperature;humidity
23207;DHT22;11773;52.570;13.052;2022-12-07T00:01:49;5.70;99.90
23207;DHT22;11773;52.570;13.052;2022-12-07T00:04:19;5.60;99.90
23207;DHT22;11773;52.570;13.052;2022-12-07T00:06:50;5.60;99.90
23207;DHT22;11773;52.570;13.052;2022-12-07T00:09:21;5.60;99.90
23207;DHT22;11773;52.570;13.052;2022-12-07T00:11:51;5.40;99.90
23207;DHT22;11773;52.570;13.052;2022-12-07T00:14:21;5.30;99.90
23207;DHT22;11773;52.570;13.052;2022-12-07T00:16:51;5.40;99.90
23207;DHT22;11773;52.570;13.052;2022-12-07T00:19:21;5.50;99.90
23207;DHT22;11773;52.570;13.052;2022-12-07T00:21:50;5.40;99.90
23207;DHT22;11773;52.570;13.052;2022-12-07T00:24:20;5.40;99.90
23207;DHT22;11773;52.570;13.052;2022-12-07T00:26:49;5.40;99.90
23207;DHT22;11773;52.570;13.052;2022-12-07T00:29:20;5.40;99.90
23207;DHT22;11773;52.570;13.052;2022-12-07T00:31:50;5.40;99.90
23207;DHT22;11773;52.570;13.052;2022-12-07T00:34:21;5.50;99.90
23207;DHT22;11773;52.570;13.052;2022-12-07T00:36:51;5.60;99.90
23207;DHT22;11773;52.570;13.052;2022-12-07T00:39:20;5.50;99.90
23207;DHT22;11773;52.570;13.052;2022-12-07T00:41:50;5.50;99.90
23207;DHT22;11773;52.570;13.052;2022-12-07T00:44:19;5.50;99.90
23207;DHT22;11773;52.570;13.052;2022-12-07T00:46:49;5.50;99.90
23207;DHT22;11773;52.570;13.052;2022-12-07T00:49:18;5.50;99.90
23207;DHT22;11773;52.570;13.052;2022-12-07T00:51:50;5.60;99.90
23207;DHT22;11773;52.570;13.052;2022-12-07T00:54:20;5.50;99.90
23207;DHT22;11773;52.570;13.052;2022-12-07T00:56:49;5.50;99.90
23207;DHT22;11773;52.570;13.052;2022-12-07T00:59:18;5.40;99.90
23207;DHT22;11773;52.570;13.052;2022-12-07T01:01:48;5.60;99.90
23207;DHT22;11773;52.570;13.052;2022-12-07T01:04:18;5.50;99.90
23207;DHT22;11773;52.570;13.052;2022-12-07T01:06:47;5.40;99.90
23207;DHT22;11773;52.570;13.052;2022-12-07T01:09:17;5.40;99.90
23207;DHT22;11773;52.570;13.052;2022-12-07T01:11:46;5.40;99.90
23207;DHT22;11773;52.570;13.052;2022-12-07T01:14:16;5.30;99.90
23207;DHT22;11773;52.570;13.052;2022-12-07T01:16:46;5.40;99.90
23207;DHT22;11773;52.570;13.052;2022-12-07T01:19:16;5.40;99.90
23207;DHT22;11773;52.570;13.052;2022-12-07T01:21:45;5.40;99.90
23207;DHT22;11773;52.570;13.052;2022-12-07T01:24:15;5.30;99.90
23207;DHT22;11773;52.570;13.052;2022-12-07T01:26:44;5.30;99.90
23207;DHT22;11773;52.570;13.052;2022-12-07T01:29:14;5.40;99.90
23207;DHT22;11773;52.570;13.052;2022-12-07T01:31:43;5.40;99.90
23207;DHT22;11773;52.570;13.052;2022-12-07T01:34:13;5.40;99.90
23207;DHT22;11773;52.570;13.052;2022-12-07T01:36:42;5.40;99.90
23207;DHT22;11773;52.570;13.052;2022-12-07T01:39:12;5.40;99.90
23207;DHT22;11773;52.570;13.052;2022-12-07T01:41:41;5.20;99.90
23207;DHT22;11773;52.570;13.052;2022-12-07T01:47:02;5.20;99.90
23207;DHT22;11773;52.570;13.052;2022-12-07T01:49:44;5.20;99.90
23207;DHT22;11773;52.570;13.052;2022-12-07T01:52:28;5.20;99.90
23207;DHT22;11773;52.570;13.052;2022-12-07T01:55:01;5.20;99.90
23207;DHT22;11773;52.570;13.052;2022-12-07T01:57:37;5.20;99.90
23207;DHT22;11773;52.570;13.052;2022-12-07T02:00:11;5.20;99.90
23207;DHT22;11773;52.570;13.052;2022-12-07T02:03:05;5.20;99.90
23207;DHT22;11773;52.570;13.052;2022-12-07T02:05:40;5.10;99.90
23207;DHT22;11773;52.570;13.052;2022-12-07T02:08:12;5.10;99.90
23207;DHT22;11773;52.570;13.052;2022-12-07T02:10:42;5.10;99.90
23207;DHT22;11773;52.570;13.052;2022-12-07T02:13:20;5.00;99.90
23207;DHT22;11773;52.570;13.052;2022-12-07T02:16:19;5.10;99.90
23207;DHT22;11773;52.570;13.052;2022-12-07T02:19:14;5.00;99.90
23207;DHT22;11773;52.570;13.052;2022-12-07T02:24:30;4.90;99.90
23207;DHT22;11773;52.570;13.052;2022-12-07T02:27:34;5.00;99.90
23207;DHT22;11773;52.570;13.052;2022-12-07T02:30:10;5.00;99.90
23207;DHT22;11773;52.570;13.052;2022-12-07T02:33:06;5.00;99.90
23207;DHT22;11773;52.570;13.052;2022-12-07T02:36:28;4.90;99.90
23207;DHT22;11773;52.570;13.052;2022-12-07T02:38:29;4.90;99.90
23207;DHT22;11773;52.570;13.052;2022-12-07T02:41:08;4.90;99.90
23207;DHT22;11773;52.570;13.052;2022-12-07T02:43:53;5.00;99.90
23207;DHT22;11773;52.570;13.052;2022-12-07T02:46:32;4.80;99.90
23207;DHT22;11773;52.570;13.052;2022-12-07T02:49:03;4.80;99.90
23207;DHT22;11773;52.570;13.052;2022-12-07T02:51:41;4.90;99.90
23207;DHT22;11773;52.570;13.052;2022-12-07T02:54:17;4.80;99.90
23207;DHT22;11773;52.570;13.052;2022-12-07T02:56:53;4.90;99.90
23207;DHT22;11773;52.570;13.052;2022-12-07T02:59:53;4.90;99.90
23207;DHT22;11773;52.570;13.052;2022-12-07T03:02:56;4.80;99.90
23207;DHT22;11773;52.570;13.052;2022-12-07T03:05:49;4.80;99.90
23207;DHT22;11773;52.570;13.052;2022-12-07T03:14:02;4.80;99.90
23207;DHT22;11773;52.570;13.052;2022-12-07T03:16:39;4.90;99.90
23207;DHT22;11773;52.570;13.052;2022-12-07T03:19:13;4.90;99.90
23207;DHT22;11773;52.570;13.052;2022-12-07T03:21:47;4.90;99.90
23207;DHT22;11773;52.570;13.052;2022-12-07T03:24:54;4.90;99.90
23207;DHT22;11773;52.570;13.052;2022-12-07T03:27:22;4.70;99.90
23207;DHT22;11773;52.570;13.052;2022-12-07T03:30:15;4.80;99.90
23207;DHT22;11773;52.570;13.052;2022-12-07T03:32:49;4.70;99.90
23207;DHT22;11773;52.570;13.052;2022-12-07T03:35:34;4.80;99.90
23207;DHT22;11773;52.570;13.052;2022-12-07T03:38:23;4.80;99.90
23207;DHT22;11773;52.570;13.052;2022-12-07T03:41:06;4.80;99.90
23207;DHT22;11773;52.570;13.052;2022-12-07T03:43:38;4.60;99.90
23207;DHT22;11773;52.570;13.052;2022-12-07T03:46:20;4.70;99.90
23207;DHT22;11773;52.570;13.052;2022-12-07T03:49:10;4.70;99.90
23207;DHT22;11773;52.570;13.052;2022-12-07T03:51:51;4.70;99.90
23207;DHT22;11773;52.570;13.052;2022-12-07T03:55:05;4.70;99.90
23207;DHT22;11773;52.570;13.052;2022-12-07T03:57:07;4.80;99.90
23207;DHT22;11773;52.570;13.052;2022-12-07T03:59:39;4.70;99.90
23207;DHT22;11773;52.570;13.052;2022-12-07T04:02:11;4.80;99.90
23207;DHT22;11773;52.570;13.052;2022-12-07T04:04:42;4.80;99.90
23207;DHT22;11773;52.570;13.052;2022-12-07T04:07:12;4.80;99.90
23207;DHT22;11773;52.570;13.052;2022-12-07T04:09:41;4.80;99.90
23207;DHT22;11773;52.570;13.052;2022-12-07T04:12:11;4.80;99.90
23207;DHT22;11773;52.570;13.052;2022-12-07T04:14:40;4.90;99.90
23207;DHT22;11773;52.570;13.052;2022-12-07T04:17:10;4.80;99.90
23207;DHT22;11773;52.570;13.052;2022-12-07T04:19:40;4.80;99.90
23207;DHT22;11773;52.570;13.052;2022-12-07T04:22:09;4.60;99.90
23207;DHT22;11773;52.570;13.052;2022-12-07T04:24:39;4.70;99.90
23207;DHT22;11773;52.570;13.052;2022-12-07T04:27:08;4.90;99.90
23207;DHT22;11773;52.570;13.052;2022-12-07T04:29:38;4.90;99.90
23207;DHT22;11773;52.570;13.052;2022-12-07T04:32:07;4.70;99.90
23207;DHT22;11773;52.570;13.052;2022-12-07T04:34:37;4.80;99.90
23207;DHT22;11773;52.570;13.052;2022-12-07T04:37:06;4.70;99.90
23207;DHT22;11773;52.570;13.052;2022-12-07T04:39:36;4.80;99.90
23207;DHT22;11773;52.570;13.052;2022-12-07T04:42:05;4.80;99.90
23207;DHT22;11773;52.570;13.052;2022-12-07T04:44:35;4.70;99.90
23207;DHT22;11773;52.570;13.052;2022-12-07T04:47:04;4.80;99.90
23207;DHT22;11773;52.570;13.052;2022-12-07T04:49:34;4.80;99.90
23207;DHT22;11773;52.570;13.052;2022-12-07T04:52:04;4.90;99.90
23207;DHT22;11773;52.570;13.052;2022-12-07T04:54:33;5.00;99.90
23207;DHT22;11773;52.570;13.052;2022-12-07T04:57:03;4.90;99.90
23207;DHT22;11773;52.570;13.052;2022-12-07T04:59:32;4.90;99.90
23207;DHT22;11773;52.570;13.052;2022-12-07T05:02:04;4.90;99.90
23207;DHT22;11773;52.570;13.052;2022-12-07T05:04:33;4.80;99.90
23207;DHT22;11773;52.570;13.052;2022-12-07T05:07:03;4.80;99.90
23207;DHT22;11773;52.570;13.052;2022-12-07T05:09:32;4.80;99.90
23207;DHT22;11773;52.570;13.052;2022-12-07T05:12:02;5.00;99.90
23207;DHT22;11773;52.570;13.052;2022-12-07T05:14:31;5.10;99.90
23207;DHT22;11773;52.570;13.052;2022-12-07T05:17:01;5.10;99.90
23207;DHT22;11773;52.570;13.052;2022-12-07T05:19:31;5.10;99.90
23207;DHT22;11773;52.570;13.052;2022-12-07T05:22:01;5.00;99.90
23207;DHT22;11773;52.570;13.052;2022-12-07T05:24:30;4.90;99.90
23207;DHT22;11773;52.570;13.052;2022-12-07T05:26:59;5.10;99.90
23207;DHT22;11773;52.570;13.052;2022-12-07T05:29:29;5.00;99.90
23207;DHT22;11773;52.570;13.052;2022-12-07T05:31:58;5.10;99.90
23207;DHT22;11773;52.570;13.052;2022-12-07T05:34:28;5.20;99.90
23207;DHT22;11773;52.570;13.052;2022-12-07T05:36:57;5.20;99.90
23207;DHT22;11773;52.570;13.052;2022-12-07T05:39:27;5.10;99.90
23207;DHT22;11773;52.570;13.052;2022-12-07T05:41:56;5.10;99.90
23207;DHT22;11773;52.570;13.052;2022-12-07T05:44:45;5.10;99.90
23207;DHT22;11773;52.570;13.052;2022-12-07T05:47:15;5.10;99.90
23207;DHT22;11773;52.570;13.052;2022-12-07T05:49:45;5.10;99.90
23207;DHT22;11773;52.570;13.052;2022-12-07T05:52:15;5.10;99.90
23207;DHT22;11773;52.570;13.052;2022-12-07T05:54:44;5.10;99.90
23207;DHT22;11773;52.570;13.052;2022-12-07T05:57:14;5.10;99.90
23207;DHT22;11773;52.570;13.052;2022-12-07T05:59:44;5.10;99.90
23207;DHT22;11773;52.570;13.052;2022-12-07T06:02:15;5.00;99.90
23207;DHT22;11773;52.570;13.052;2022-12-07T06:04:46;5.30;99.90
23207;DHT22;11773;52.570;13.052;2022-12-07T06:07:16;5.30;99.90
23207;DHT22;11773;52.570;13.052;2022-12-07T06:09:46;5.20;99.90
23207;DHT22;11773;52.570;13.052;2022-12-07T06:12:15;5.30;99.90
23207;DHT22;11773;52.570;13.052;2022-12-07T06:15:05;5.20;99.90
23207;DHT22;11773;52.570;13.052;2022-12-07T06:17:35;5.10;99.90
23207;DHT22;11773;52.570;13.052;2022-12-07T06:20:06;5.10;99.90
23207;DHT22;11773;52.570;13.052;2022-12-07T06:22:36;5.20;99.90
23207;DHT22;11773;52.570;13.052;2022-12-07T06:25:05;5.20;99.90
23207;DHT22;11773;52.570;13.052;2022-12-07T06:27:36;5.20;99.90
23207;DHT22;11773;52.570;13.052;2022-12-07T06:30:06;5.10;99.90
23207;DHT22;11773;52.570;13.052;2022-12-07T06:32:37;5.10;99.90
23207;DHT22;11773;52.570;13.052;2022-12-07T06:35:07;5.20;99.90
23207;DHT22;11773;52.570;13.052;2022-12-07T06:37:36;5.30;99.90
23207;DHT22;11773;52.570;13.052;2022-12-07T06:40:06;5.30;99.90
23207;DHT22;11773;52.570;13.052;2022-12-07T06:42:36;5.40;99.90
23207;DHT22;11773;52.570;13.052;2022-12-07T06:45:06;5.40;99.90
23207;DHT22;11773;52.570;13.052;2022-12-07T06:47:36;5.50;99.90
23207;DHT22;11773;52.570;13.052;2022-12-07T06:50:07;5.30;99.90
23207;DHT22;11773;52.570;13.052;2022-12-07T06:52:37;5.40;99.90
23207;DHT22;11773;52.570;13.052;2022-12-07T06:55:07;5.30;99.90
23207;DHT22;11773;52.570;13.052;2022-12-07T06:57:36;5.30;99.90
23207;DHT22;11773;52.570;13.052;2022-12-07T07:00:06;5.20;99.90
23207;DHT22;11773;52.570;13.052;2022-12-07T07:02:36;5.30;99.90
23207;DHT22;11773;52.570;13.052;2022-12-07T07:05:06;5.40;99.90
23207;DHT22;11773;52.570;13.052;2022-12-07T07:07:36;5.40;99.90
23207;DHT22;11773;52.570;13.052;2022-12-07T07:10:07;5.40;99.90
23207;DHT22;11773;52.570;13.052;2022-12-07T07:12:37;5.30;99.90
23207;DHT22;11773;52.570;13.052;2022-12-07T07:15:06;5.30;99.90
23207;DHT22;11773;52.570;13.052;2022-12-07T07:17:37;5.30;99.90
23207;DHT22;11773;52.570;13.052;2022-12-07T07:20:06;5.40;99.90
23207;DHT22;11773;52.570;13.052;2022-12-07T07:22:36;5.40;99.90
23207;DHT22;11773;52.570;13.052;2022-12-07T07:25:06;5.30;99.90
23207;DHT22;11773;52.570;13.052;2022-12-07T07:27:35;5.20;99.90
23207;DHT22;11773;52.570;13.052;2022-12-07T07:30:05;5.20;99.90
23207;DHT22;11773;52.570;13.052;2022-12-07T07:32:36;5.20;99.90
23207;DHT22;11773;52.570;13.052;2022-12-07T07:35:05;5.30;99.90
23207;DHT22;11773;52.570;13.052;2022-12-07T07:37:36;5.30;99.90
23207;DHT22;11773;52.570;13.052;2022-12-07T07:40:06;5.40;99.90
23207;DHT22;11773;52.570;13.052;2022-12-07T07:42:36;5.40;99.90
23207;DHT22;11773;52.570;13.052;2022-12-07T07:45:06;5.30;99.90
23207;DHT22;11773;52.570;13.052;2022-12-07T07:47:36;5.30;99.90
23207;DHT22;11773;52.570;13.052;2022-12-07T07:50:06;5.30;99.90
23207;DHT22;11773;52.570;13.052;2022-12-07T07:52:35;5.20;99.90
23207;DHT22;11773;52.570;13.052;2022-12-07T07:55:05;5.20;99.90
23207;DHT22;11773;52.570;13.052;2022-12-07T07:57:38;5.30;99.90
23207;DHT22;11773;52.570;13.052;2022-12-07T08:00:13;5.20;99.90
23207;DHT22;11773;52.570;13.052;2022-12-07T08:02:44;5.30;99.90
23207;DHT22;11773;52.570;13.052;2022-12-07T08:05:14;5.40;99.90
23207;DHT22;11773;52.570;13.052;2022-12-07T08:07:43;5.20;99.90
23207;DHT22;11773;52.570;13.052;2022-12-07T08:10:13;5.20;99.90
23207;DHT22;11773;52.570;13.052;2022-12-07T08:12:43;5.30;99.90
23207;DHT22;11773;52.570;13.052;2022-12-07T08:15:31;5.30;99.90
23207;DHT22;11773;52.570;13.052;2022-12-07T08:18:00;5.20;99.90
23207;DHT22;11773;52.570;13.052;2022-12-07T08:20:31;5.20;99.90
23207;DHT22;11773;52.570;13.052;2022-12-07T08:23:02;5.10;99.90
23207;DHT22;11773;52.570;13.052;2022-12-07T08:25:32;5.20;99.90
23207;DHT22;11773;52.570;13.052;2022-12-07T08:28:02;5.20;99.90
23207;DHT22;11773;52.570;13.052;2022-12-07T08:30:32;5.20;99.90
23207;DHT22;11773;52.570;13.052;2022-12-07T08:33:02;5.20;99.90
23207;DHT22;11773;52.570;13.052;2022-12-07T08:35:33;5.20;99.90
23207;DHT22;11773;52.570;13.052;2022-12-07T08:38:03;5.30;99.90
23207;DHT22;11773;52.570;13.052;2022-12-07T08:40:32;5.20;99.90
23207;DHT22;11773;52.570;13.052;2022-12-07T08:43:02;5.10;99.90
23207;DHT22;11773;52.570;13.052;2022-12-07T08:45:32;4.90;99.90
23207;DHT22;11773;52.570;13.052;2022-12-07T08:48:08;5.10;99.90
23207;DHT22;11773;52.570;13.052;2022-12-07T08:50:40;5.20;99.90
23207;DHT22;11773;52.570;13.052;2022-12-07T08:53:11;5.10;99.90
23207;DHT22;11773;52.570;13.052;2022-12-07T08:55:40;5.10;99.90
23207;DHT22;11773;52.570;13.052;2022-12-07T08:58:11;5.10;99.90
23207;DHT22;11773;52.570;13.052;2022-12-07T09:00:40;5.10;99.90
23207;DHT22;11773;52.570;13.052;2022-12-07T09:03:09;5.00;99.90
23207;DHT22;11773;52.570;13.052;2022-12-07T09:05:39;5.00;99.90
23207;DHT22;11773;52.570;13.052;2022-12-07T09:08:08;5.00;99.90
23207;DHT22;11773;52.570;13.052;2022-12-07T09:10:38;5.00;99.90
23207;DHT22;11773;52.570;13.052;2022-12-07T09:13:07;4.90;99.90
23207;DHT22;11773;52.570;13.052;2022-12-07T09:15:37;5.00;99.90
23207;DHT22;11773;52.570;13.052;2022-12-07T09:18:07;5.00;99.90
23207;DHT22;11773;52.570;13.052;2022-12-07T09:20:36;5.00;99.90
23207;DHT22;11773;52.570;13.052;2022-12-07T09:23:06;5.10;99.90
23207;DHT22;11773;52.570;13.052;2022-12-07T09:25:36;5.10;99.90
23207;DHT22;11773;52.570;13.052;2022-12-07T09:28:05;5.20;99.90
23207;DHT22;11773;52.570;13.052;2022-12-07T09:30:35;5.30;99.90
23207;DHT22;11773;52.570;13.052;2022-12-07T09:33:06;5.20;99.90
23207;DHT22;11773;52.570;13.052;2022-12-07T09:35:36;5.20;99.90
23207;DHT22;11773;52.570;13.052;2022-12-07T09:38:05;5.00;99.90
23207;DHT22;11773;52.570;13.052;2022-12-07T09:40:35;5.10;99.90
23207;DHT22;11773;52.570;13.052;2022-12-07T09:43:04;5.10;99.90
23207;DHT22;11773;52.570;13.052;2022-12-07T09:45:36;5.10;99.90
23207;DHT22;11773;52.570;13.052;2022-12-07T09:48:20;5.10;99.90
23207;DHT22;11773;52.570;13.052;2022-12-07T09:50:53;5.10;99.90
23207;DHT22;11773;52.570;13.052;2022-12-07T09:53:30;5.10;99.90
23207;DHT22;11773;52.570;13.052;2022-12-07T09:56:05;5.20;99.90
23207;DHT22;11773;52.570;13.052;2022-12-07T09:58:35;5.10;99.90
23207;DHT22;11773;52.570;13.052;2022-12-07T10:03:53;5.30;99.90
23207;DHT22;11773;52.570;13.052;2022-12-07T10:06:25;5.10;99.90
23207;DHT22;11773;52.570;13.052;2022-12-07T10:08:54;5.20;99.90
23207;DHT22;11773;52.570;13.052;2022-12-07T10:11:23;5.30;99.90
23207;DHT22;11773;52.570;13.052;2022-12-07T10:13:53;5.40;99.90
23207;DHT22;11773;52.570;13.052;2022-12-07T10:16:40;5.40;99.90
23207;DHT22;11773;52.570;13.052;2022-12-07T10:19:24;5.40;99.90
23207;DHT22;11773;52.570;13.052;2022-12-07T10:22:15;5.40;99.90
23207;DHT22;11773;52.570;13.052;2022-12-07T10:24:47;5.30;99.90
23207;DHT22;11773;52.570;13.052;2022-12-07T10:27:19;5.30;99.90
23207;DHT22;11773;52.570;13.052;2022-12-07T10:29:53;5.30;99.90
23207;DHT22;11773;52.570;13.052;2022-12-07T10:32:33;5.20;99.90
23207;DHT22;11773;52.570;13.052;2022-12-07T10:35:19;5.30;99.90
23207;DHT22;11773;52.570;13.052;2022-12-07T10:37:51;5.30;99.90
23207;DHT22;11773;52.570;13.052;2022-12-07T10:40:28;5.40;99.90
23207;DHT22;11773;52.570;13.052;2022-12-07T10:49:23;5.50;99.90
23207;DHT22;11773;52.570;13.052;2022-12-07T10:52:00;5.50;99.90
23207;DHT22;11773;52.570;13.052;2022-12-07T10:54:34;5.50;99.90
23207;DHT22;11773;52.570;13.052;2022-12-07T10:57:07;5.50;99.90
23207;DHT22;11773;52.570;13.052;2022-12-07T11:05:33;5.60;99.90
23207;DHT22;11773;52.570;13.052;2022-12-07T11:11:33;5.60;99.90
23207;DHT22;11773;52.570;13.052;2022-12-07T11:17:01;5.60;99.90
23207;DHT22;11773;52.570;13.052;2022-12-07T11:19:59;5.80;99.90
23207;DHT22;11773;52.570;13.052;2022-12-07T11:22:48;5.90;99.90
23207;DHT22;11773;52.570;13.052;2022-12-07T11:28:35;5.90;99.90
23207;DHT22;11773;52.570;13.052;2022-12-07T11:34:00;5.80;99.90
23207;DHT22;11773;52.570;13.052;2022-12-07T11:36:51;5.90;99.90
23207;DHT22;11773;52.570;13.052;2022-12-07T11:39:31;5.80;99.90
23207;DHT22;11773;52.570;13.052;2022-12-07T11:42:27;6.00;99.90
23207;DHT22;11773;52.570;13.052;2022-12-07T11:47:59;6.00;99.90
23207;DHT22;11773;52.570;13.052;2022-12-07T11:50:45;6.00;99.90
23207;DHT22;11773;52.570;13.052;2022-12-07T11:53:22;6.00;99.90
23207;DHT22;11773;52.570;13.052;2022-12-07T11:56:00;5.90;99.90
23207;DHT22;11773;52.570;13.052;2022-12-07T12:04:44;6.00;99.90
23207;DHT22;11773;52.570;13.052;2022-12-07T12:07:27;6.00;99.90
23207;DHT22;11773;52.570;13.052;2022-12-07T12:10:13;5.90;99.90
23207;DHT22;11773;52.570;13.052;2022-12-07T12:12:50;6.00;99.90
23207;DHT22;11773;52.570;13.052;2022-12-07T12:15:38;6.00;99.90
23207;DHT22;11773;52.570;13.052;2022-12-07T12:18:23;6.10;99.90
23207;DHT22;11773;52.570;13.052;2022-12-07T12:21:00;6.00;99.90
23207;DHT22;11773;52.570;13.052;2022-12-07T12:23:41;6.10;99.90
23207;DHT22;11773;52.570;13.052;2022-12-07T12:26:23;6.00;99.90
23207;DHT22;11773;52.570;13.052;2022-12-07T12:28:56;6.20;99.90
23207;DHT22;11773;52.570;13.052;2022-12-07T12:31:36;6.20;99.90
23207;DHT22;11773;52.570;13.052;2022-12-07T12:42:51;6.10;99.90
23207;DHT22;11773;52.570;13.052;2022-12-07T12:45:26;6.20;99.90
23207;DHT22;11773;52.570;13.052;2022-12-07T12:48:01;6.20;99.90
23207;DHT22;11773;52.570;13.052;2022-12-07T12:50:49;6.20;99.90
23207;DHT22;11773;52.570;13.052;2022-12-07T12:53:24;6.20;99.90
23207;DHT22;11773;52.570;13.052;2022-12-07T13:02:16;6.10;99.90
23207;DHT22;11773;52.570;13.052;2022-12-07T13:04:59;6.00;99.90
23207;DHT22;11773;52.570;13.052;2022-12-07T13:08:01;6.10;99.90
23207;DHT22;11773;52.570;13.052;2022-12-07T13:10:41;6.10;99.90
23207;DHT22;11773;52.570;13.052;2022-12-07T13:15:54;6.10;99.90
23207;DHT22;11773;52.570;13.052;2022-12-07T13:26:36;6.10;99.90
23207;DHT22;11773;52.570;13.052;2022-12-07T13:29:16;6.10;99.90
23207;DHT22;11773;52.570;13.052;2022-12-07T13:31:53;6.00;99.90
23207;DHT22;11773;52.570;13.052;2022-12-07T13:34:29;6.10;99.90
23207;DHT22;11773;52.570;13.052;2022-12-07T13:37:10;6.10;99.90
23207;DHT22;11773;52.570;13.052;2022-12-07T13:39:55;6.00;99.90
23207;DHT22;11773;52.570;13.052;2022-12-07T13:42:32;6.00;99.90
23207;DHT22;11773;52.570;13.052;2022-12-07T13:45:22;6.10;99.90
23207;DHT22;11773;52.570;13.052;2022-12-07T13:48:56;6.10;99.90
23207;DHT22;11773;52.570;13.052;2022-12-07T13:50:55;6.10;99.90
23207;DHT22;11773;52.570;13.052;2022-12-07T13:53:25;6.10;99.90
23207;DHT22;11773;52.570;13.052;2022-12-07T13:55:59;6.10;99.90
23207;DHT22;11773;52.570;13.052;2022-12-07T13:58:31;6.10;99.90
23207;DHT22;11773;52.570;13.052;2022-12-07T14:01:01;6.10;99.90
23207;DHT22;11773;52.570;13.052;2022-12-07T14:03:33;6.10;99.90
23207;DHT22;11773;52.570;13.052;2022-12-07T14:06:16;6.00;99.90
23207;DHT22;11773;52.570;13.052;2022-12-07T14:08:49;6.10;99.90
23207;DHT22;11773;52.570;13.052;2022-12-07T14:11:21;6.20;99.90
23207;DHT22;11773;52.570;13.052;2022-12-07T14:14:01;6.20;99.90
23207;DHT22;11773;52.570;13.052;2022-12-07T14:16:36;6.20;99.90
23207;DHT22;11773;52.570;13.052;2022-12-07T14:22:19;6.20;99.90
23207;DHT22;11773;52.570;13.052;2022-12-07T14:25:20;6.20;99.90
23207;DHT22;11773;52.570;13.052;2022-12-07T14:27:59;6.20;99.90
23207;DHT22;11773;52.570;13.052;2022-12-07T14:30:31;6.00;99.90
23207;DHT22;11773;52.570;13.052;2022-12-07T14:33:04;6.10;99.90
23207;DHT22;11773;52.570;13.052;2022-12-07T14:35:34;6.00;99.90
23207;DHT22;11773;52.570;13.052;2022-12-07T14:38:08;6.00;99.90
23207;DHT22;11773;52.570;13.052;2022-12-07T14:40:38;5.90;99.90
23207;DHT22;11773;52.570;13.052;2022-12-07T14:43:16;5.90;99.90
23207;DHT22;11773;52.570;13.052;2022-12-07T14:45:47;5.80;99.90
23207;DHT22;11773;52.570;13.052;2022-12-07T14:48:16;5.80;99.90
23207;DHT22;11773;52.570;13.052;2022-12-07T14:50:52;6.00;99.90
23207;DHT22;11773;52.570;13.052;2022-12-07T14:53:31;5.90;99.90
23207;DHT22;11773;52.570;13.052;2022-12-07T14:55:58;5.80;99.90
23207;DHT22;11773;52.570;13.052;2022-12-07T14:58:28;5.80;99.90
23207;DHT22;11773;52.570;13.052;2022-12-07T15:00:57;5.80;99.90
23207;DHT22;11773;52.570;13.052;2022-12-07T15:03:27;5.80;99.90
23207;DHT22;11773;52.570;13.052;2022-12-07T15:05:58;5.70;99.90
23207;DHT22;11773;52.570;13.052;2022-12-07T15:08:27;5.70;99.90
23207;DHT22;11773;52.570;13.052;2022-12-07T15:10:57;5.60;99.90
23207;DHT22;11773;52.570;13.052;2022-12-07T15:13:26;5.60;99.90
23207;DHT22;11773;52.570;13.052;2022-12-07T15:16:16;5.60;99.90
23207;DHT22;11773;52.570;13.052;2022-12-07T15:18:48;5.40;99.90
23207;DHT22;11773;52.570;13.052;2022-12-07T15:21:20;5.50;99.90
23207;DHT22;11773;52.570;13.052;2022-12-07T15:23:50;5.70;99.90
23207;DHT22;11773;52.570;13.052;2022-12-07T15:26:19;5.60;99.90
23207;DHT22;11773;52.570;13.052;2022-12-07T15:29:09;5.70;99.90
23207;DHT22;11773;52.570;13.052;2022-12-07T15:31:41;5.60;99.90
23207;DHT22;11773;52.570;13.052;2022-12-07T15:34:12;5.60;99.90
23207;DHT22;11773;52.570;13.052;2022-12-07T15:36:42;5.50;99.90
23207;DHT22;11773;52.570;13.052;2022-12-07T15:39:11;5.50;99.90
23207;DHT22;11773;52.570;13.052;2022-12-07T15:41:42;5.50;99.90
23207;DHT22;11773;52.570;13.052;2022-12-07T15:44:15;5.50;99.90
23207;DHT22;11773;52.570;13.052;2022-12-07T15:47:04;5.50;99.90
23207;DHT22;11773;52.570;13.052;2022-12-07T15:49:34;5.40;99.90
23207;DHT22;11773;52.570;13.052;2022-12-07T15:52:04;5.30;99.90
23207;DHT22;11773;52.570;13.052;2022-12-07T15:54:33;5.30;99.90
23207;DHT22;11773;52.570;13.052;2022-12-07T15:57:02;5.20;99.90
23207;DHT22;11773;52.570;13.052;2022-12-07T15:59:32;5.20;99.90
23207;DHT22;11773;52.570;13.052;2022-12-07T16:02:01;5.20;99.90
23207;DHT22;11773;52.570;13.052;2022-12-07T16:04:31;5.20;99.90
23207;DHT22;11773;52.570;13.052;2022-12-07T16:07:02;5.20;99.90
23207;DHT22;11773;52.570;13.052;2022-12-07T16:09:32;5.00;99.90
23207;DHT22;11773;52.570;13.052;2022-12-07T16:12:01;5.10;99.90
23207;DHT22;11773;52.570;13.052;2022-12-07T16:14:31;5.10;99.90
23207;DHT22;11773;52.570;13.052;2022-12-07T16:17:00;5.20;99.90
23207;DHT22;11773;52.570;13.052;2022-12-07T16:19:32;5.10;99.90
23207;DHT22;11773;52.570;13.052;2022-12-07T16:22:02;5.10;99.90
23207;DHT22;11773;52.570;13.052;2022-12-07T16:24:32;5.10;99.90
23207;DHT22;11773;52.570;13.052;2022-12-07T16:27:02;5.10;99.90
23207;DHT22;11773;52.570;13.052;2022-12-07T16:29:31;5.00;99.90
23207;DHT22;11773;52.570;13.052;2022-12-07T16:32:01;5.00;99.90
23207;DHT22;11773;52.570;13.052;2022-12-07T16:34:30;5.00;99.90
23207;DHT22;11773;52.570;13.052;2022-12-07T16:37:00;5.00;99.90
23207;DHT22;11773;52.570;13.052;2022-12-07T16:39:32;4.90;99.90
23207;DHT22;11773;52.570;13.052;2022-12-07T16:42:02;4.90;99.90
23207;DHT22;11773;52.570;13.052;2022-12-07T16:44:31;4.80;99.90
23207;DHT22;11773;52.570;13.052;2022-12-07T16:47:01;4.90;99.90
23207;DHT22;11773;52.570;13.052;2022-12-07T16:49:31;4.90;99.90
23207;DHT22;11773;52.570;13.052;2022-12-07T16:52:00;4.80;99.90
23207;DHT22;11773;52.570;13.052;2022-12-07T16:54:31;4.90;99.90
23207;DHT22;11773;52.570;13.052;2022-12-07T16:57:01;4.80;99.90
23207;DHT22;11773;52.570;13.052;2022-12-07T16:59:31;4.80;99.90
23207;DHT22;11773;52.570;13.052;2022-12-07T17:02:00;4.70;99.90
23207;DHT22;11773;52.570;13.052;2022-12-07T17:04:31;4.80;99.90
23207;DHT22;11773;52.570;13.052;2022-12-07T17:07:01;4.80;99.90
23207;DHT22;11773;52.570;13.052;2022-12-07T17:09:30;4.60;99.90
23207;DHT22;11773;52.570;13.052;2022-12-07T17:12:00;4.50;99.90
23207;DHT22;11773;52.570;13.052;2022-12-07T17:14:29;4.50;99.90
23207;DHT22;11773;52.570;13.052;2022-12-07T17:17:17;4.60;99.90
23207;DHT22;11773;52.570;13.052;2022-12-07T17:19:46;4.70;99.90
23207;DHT22;11773;52.570;13.052;2022-12-07T17:22:16;4.70;99.90
23207;DHT22;11773;52.570;13.052;2022-12-07T17:24:45;4.70;99.90
23207;DHT22;11773;52.570;13.052;2022-12-07T17:27:15;4.50;99.90